Turecamo Girls — WDC3464 — position and weather

sailwx.info

Track history (hours):
 
Tides and Currents Weather Stations Pressure Air Temp Water Temp Dewpoint Dewpoint Depression Visibility Wind Speed Wind Dir Waves Ship Positions

Turecamo Girls

Owner: Moran Towing Corporation, New Canaan, CT. More information available from US FCC via Universal Licensing System and Coast Guard Vessel Documentation Center.

Last reported at 2018-Jan-21 17:36 UTC. Time now 2018-Jan-21 18:18 UTC.
Position N 40°35' W 074°13'.

Length 30 m; draft 4 m.

Type: Tug. MMSI: 366946710.

Date/timePositionNaut miles runAvg speedWind from/ knotsBaromVisibWave heightAir tempDewpointWater temp
2018-Jan-21 17:36N 40°35' W 074°13'3 1.5
2018-Jan-21 15:37N 40°33' W 074°15'2 9.2
2018-Jan-21 15:23N 40°34' W 074°13'3 9.1
2018-Jan-21 15:00N 40°38' W 074°12'4 8.1
2018-Jan-21 14:29N 40°39' W 074°07'1 1.3
2018-Jan-21 13:55N 40°39' W 074°06'1 2.4
2018-Jan-21 13:26N 40°39' W 074°07'2 3.5
2018-Jan-21 13:00N 40°40' W 074°08'2 3.3
2018-Jan-21 12:29N 40°42' W 074°08'0 0.5
2018-Jan-21 11:59N 40°42' W 074°09'0 0.9
2018-Jan-21 11:29N 40°41' W 074°08'2 5.1
2018-Jan-21 11:00N 40°39' W 074°09'1 2.2
2018-Jan-21 10:30N 40°38' W 074°08'0 0.3
2018-Jan-21 09:57N 40°39' W 074°08'1 1.7
2018-Jan-21 09:30N 40°39' W 074°07'1 1.8
2018-Jan-21 08:59N 40°38' W 074°08'0 0.0
2018-Jan-21 08:26N 40°38' W 074°08'0 0.0
2018-Jan-21 07:56N 40°38' W 074°08'0 0.0
2018-Jan-21 07:25N 40°38' W 074°08'0 0.0
2018-Jan-21 06:55N 40°38' W 074°08'0 0.0
2018-Jan-21 06:28N 40°38' W 074°08'0 0.0
2018-Jan-21 05:58N 40°38' W 074°08'0 0.0
2018-Jan-21 05:25N 40°38' W 074°08'0 0.0
2018-Jan-21 04:58N 40°38' W 074°08'0 0.0
2018-Jan-21 04:25N 40°38' W 074°08'0 0.0
2018-Jan-21 03:55N 40°38' W 074°08'0 0.0
2018-Jan-21 03:28N 40°38' W 074°08'0 0.0
2018-Jan-21 02:58N 40°38' W 074°08'0 0.0
2018-Jan-21 02:25N 40°38' W 074°08'0 0.0
2018-Jan-21 01:55N 40°38' W 074°08'0 0.0
2018-Jan-21 01:13N 40°38' W 074°08'0 0.0
2018-Jan-21 00:58N 40°38' W 074°08'1 2.0
2018-Jan-21 00:28N 40°39' W 074°07'0 0.0
2018-Jan-20 23:58N 40°39' W 074°07'0 0.0
2018-Jan-20 23:28N 40°39' W 074°07'0 0.0
2018-Jan-20 22:55N 40°39' W 074°07'0 0.2
2018-Jan-20 22:26N 40°39' W 074°07'1 1.9
2018-Jan-20 21:55N 40°38' W 074°08'1 1.6
2018-Jan-20 21:29N 40°39' W 074°07'0 0.0
2018-Jan-20 20:59N 40°39' W 074°07'2 3.2
2018-Jan-20 20:30N 40°39' W 074°05'2 3.1
2018-Jan-20 20:00N 40°38' W 074°04'1 2.2
2018-Jan-20 19:30N 40°39' W 074°04'2 3.6
2018-Jan-20 19:00N 40°39' W 074°07'5 9.3
2018-Jan-20 18:31N 40°41' W 074°01'5 9.8
2018-Jan-20 18:00N 40°45' W 073°58'4 7.8
2018-Jan-20 17:29N 40°47' W 073°54'0 0.4
2018-Jan-20 16:54N 40°47' W 073°54'1 2.8
2018-Jan-20 16:30N 40°48' W 073°53'0 0.3
2018-Jan-20 15:49N 40°48' W 073°53'1 4.1
2018-Jan-20 15:30N 40°48' W 073°55'4 7.9
2018-Jan-20 15:00N 40°45' W 073°58'3 6.6
2018-Jan-20 14:30N 40°42' W 074°00'3 6.2
2018-Jan-20 14:00N 40°40' W 074°03'2 3.1
2018-Jan-20 13:30N 40°40' W 074°05'0 0.0
2018-Jan-20 13:00N 40°40' W 074°05'2 4.0
2018-Jan-20 12:29N 40°39' W 074°03'0 0.5
2018-Jan-20 11:54N 40°38' W 074°04'0 0.2
2018-Jan-20 11:27N 40°38' W 074°04'0 0.1
2018-Jan-20 11:00N 40°38' W 074°04'0 0.1
2018-Jan-20 10:27N 40°38' W 074°04'0 0.0
2018-Jan-20 10:00N 40°38' W 074°04'0 0.0
2018-Jan-20 09:27N 40°38' W 074°04'0 0.0
2018-Jan-20 08:57N 40°38' W 074°04'0 0.0
2018-Jan-20 08:29N 40°38' W 074°04'2 3.7
2018-Jan-20 08:00N 40°39' W 074°06'1 1.5
2018-Jan-20 07:05N 40°38' W 074°08'0 0.0
2018-Jan-20 06:53N 40°38' W 074°08'0 0.0
2018-Jan-20 06:20N 40°38' W 074°08'0 0.0
2018-Jan-20 05:14N 40°38' W 074°08'0 0.1
2018-Jan-20 04:58N 40°38' W 074°08'4 7.3
2018-Jan-20 04:29N 40°37' W 074°12'5 2.0
2018-Jan-20 02:02N 40°33' W 074°15'2 8.5
2018-Jan-20 01:49N 40°34' W 074°13'3 8.8
2018-Jan-20 01:30N 40°37' W 074°12'3 6.1
2018-Jan-20 01:00N 40°39' W 074°09'1 0.8
2018-Jan-19 23:18N 40°38' W 074°08'0 0.0
2018-Jan-19 23:00N 40°38' W 074°08'0 0.0
2018-Jan-19 22:30N 40°38' W 074°08'0 0.0
2018-Jan-19 20:40N 40°38' W 074°08'1 6.6
2018-Jan-19 20:30N 40°39' W 074°06'1 1.8
2018-Jan-19 19:59N 40°39' W 074°05'2 4.2
2018-Jan-19 19:29N 40°39' W 074°08'0 0.2
2018-Jan-19 18:58N 40°38' W 074°08'0 0.0
2018-Jan-19 18:28N 40°38' W 074°08'0 0.0
2018-Jan-19 17:58N 40°38' W 074°08'0 0.5
2018-Jan-19 17:30N 40°39' W 074°08'4 8.1
2018-Jan-19 16:59N 40°43' W 074°07'1 1.9
2018-Jan-19 16:28N 40°42' W 074°07'0 0.3
2018-Jan-19 15:58N 40°42' W 074°07'3 6.7
2018-Jan-19 15:30N 40°38' W 074°08'2 4.1
2018-Jan-19 15:00N 40°39' W 074°05'0 0.1
2018-Jan-19 14:27N 40°39' W 074°05'0 0.3
2018-Jan-19 14:00N 40°39' W 074°05'1 2.2
2018-Jan-19 13:28N 40°39' W 074°04'0 0.4
2018-Jan-19 12:58N 40°39' W 074°04'2 4.0
2018-Jan-19 12:29N 40°40' W 074°05'0 0.3
2018-Jan-19 11:59N 40°40' W 074°05'1 1.3
2018-Jan-19 11:29N 40°40' W 074°04'1 1.3
2018-Jan-19 10:57N 40°40' W 074°03'0 0.8
2018-Jan-19 10:30N 40°40' W 074°03'3 6.7
2018-Jan-19 10:00N 40°39' W 074°07'1 1.0
2018-Jan-19 09:31N 40°38' W 074°08'0 0.0
2018-Jan-19 09:01N 40°38' W 074°08'0 0.0
2018-Jan-19 08:30N 40°38' W 074°08'0 0.0
2018-Jan-19 08:00N 40°38' W 074°08'0 0.0
2018-Jan-19 07:28N 40°38' W 074°08'3 7.5
2018-Jan-19 07:00N 40°38' W 074°12'4 8.0
2018-Jan-19 06:29N 40°33' W 074°14'1 1.7
2018-Jan-19 05:45N 40°33' W 074°15'2 9.2
2018-Jan-19 05:29N 40°34' W 074°13'5 9.9
2018-Jan-19 05:00N 40°39' W 074°11'2 4.5
2018-Jan-19 04:30N 40°38' W 074°08'0 0.0
2018-Jan-19 04:00N 40°38' W 074°08'0 0.0
2018-Jan-19 03:30N 40°38' W 074°08'0 0.0
2018-Jan-19 03:00N 40°38' W 074°08'0 0.0
2018-Jan-19 02:30N 40°38' W 074°08'0 0.0
2018-Jan-19 02:00N 40°38' W 074°08'0 0.0
2018-Jan-19 01:30N 40°38' W 074°08'0 0.0
2018-Jan-19 00:59N 40°38' W 074°08'0 0.0
2018-Jan-19 00:29N 40°38' W 074°08'0 0.0
2018-Jan-18 23:59N 40°38' W 074°08'0 0.0
2018-Jan-18 23:29N 40°38' W 074°08'0 0.0
2018-Jan-18 22:59N 40°38' W 074°08'0 0.0
2018-Jan-18 22:29N 40°38' W 074°08'0 0.0
2018-Jan-18 21:53N 40°38' W 074°08'0 0.2
2018-Jan-18 21:25N 40°39' W 074°08'0 0.2
2018-Jan-18 21:00N 40°38' W 074°08'0 0.0
2018-Jan-18 20:30N 40°38' W 074°08'0 0.0
2018-Jan-18 20:00N 40°38' W 074°08'0 0.0
2018-Jan-18 19:30N 40°38' W 074°08'0 0.0
2018-Jan-18 18:54N 40°38' W 074°08'0 0.0
2018-Jan-18 18:27N 40°38' W 074°08'0 0.0
2018-Jan-18 18:00N 40°38' W 074°08'0 0.0
2018-Jan-18 17:30N 40°38' W 074°08'0 0.1
2018-Jan-18 16:40N 40°38' W 074°08'1 8.5
2018-Jan-18 16:30N 40°39' W 074°10'2 4.6
2018-Jan-18 15:59N 40°38' W 074°12'0 0.7
2018-Jan-18 15:29N 40°38' W 074°12'3 6.9
2018-Jan-18 15:00N 40°39' W 074°08'0 0.2
2018-Jan-18 14:29N 40°38' W 074°08'0 0.9
2018-Jan-18 14:00N 40°39' W 074°07'1 1.1
2018-Jan-18 13:29N 40°39' W 074°07'0 0.4
2018-Jan-18 12:50N 40°39' W 074°06'2 5.4
2018-Jan-18 12:29N 40°39' W 074°09'2 1.2
2018-Jan-18 10:35N 40°42' W 074°08'1 4.5
2018-Jan-18 10:22N 40°41' W 074°08'2 5.5
2018-Jan-18 10:00N 40°39' W 074°08'4 7.9
2018-Jan-18 09:30N 40°38' W 074°03'2 3.3
2018-Jan-18 09:00N 40°40' W 074°04'1 2.0
2018-Jan-18 08:30N 40°40' W 074°05'2 4.5
2018-Jan-18 08:00N 40°40' W 074°02'1 2.5
2018-Jan-18 07:30N 40°41' W 074°01'0 0.4
2018-Jan-18 07:00N 40°41' W 074°01'6 3.2
2018-Jan-18 05:10N 40°38' W 074°08'0 0.0
2018-Jan-18 04:58N 40°38' W 074°08'0 0.0
2018-Jan-18 04:28N 40°38' W 074°08'0 0.0
2018-Jan-18 03:52N 40°38' W 074°08'0 0.0
2018-Jan-18 03:22N 40°38' W 074°08'0 0.0
2018-Jan-18 02:58N 40°38' W 074°08'0 0.0
2018-Jan-18 02:28N 40°38' W 074°08'1 1.9
2018-Jan-18 02:00N 40°39' W 074°07'0 0.2
2018-Jan-18 01:23N 40°39' W 074°07'1 2.3
2018-Jan-18 01:00N 40°39' W 074°05'2 1.9
2018-Jan-18 00:00N 40°38' W 074°08'0 0.0
2018-Jan-17 23:54N 40°38' W 074°08'  
2018-Jan-12 14:59N 40°38' W 074°08'3 6.8
2018-Jan-12 14:30N 40°38' W 074°03'3 5.2
2018-Jan-12 14:00N 40°36' W 074°02'0 0.4
2018-Jan-12 13:29N 40°36' W 074°02'0 0.1
2018-Jan-12 12:55N 40°36' W 074°02'0 0.2
2018-Jan-12 12:28N 40°36' W 074°02'0 0.2
2018-Jan-12 12:00N 40°36' W 074°02'0 0.1
2018-Jan-12 11:30N 40°36' W 074°02'0 0.3
2018-Jan-12 11:00N 40°36' W 074°02'0 0.2
2018-Jan-12 10:29N 40°36' W 074°02'0 0.2
2018-Jan-12 09:59N 40°36' W 074°02'0 0.0
2018-Jan-12 09:30N 40°36' W 074°02'0 0.0
2018-Jan-12 08:58N 40°36' W 074°02'0 0.2
2018-Jan-12 08:29N 40°36' W 074°02'0 0.2
2018-Jan-12 08:00N 40°36' W 074°02'0 0.2
2018-Jan-12 07:31N 40°36' W 074°02'0 0.5
2018-Jan-12 06:56N 40°36' W 074°02'0 0.6
2018-Jan-12 06:28N 40°36' W 074°02'0 0.1
2018-Jan-12 05:58N 40°36' W 074°02'0 0.1
2018-Jan-12 05:30N 40°35' W 074°02'0 0.2
2018-Jan-12 04:57N 40°35' W 074°02'0 0.2
2018-Jan-12 04:30N 40°35' W 074°02'0 0.3
2018-Jan-12 04:00N 40°35' W 074°02'0 0.1
2018-Jan-12 02:59N 40°35' W 074°02'1 0.1
2018-Jan-11 18:31N 40°34' W 074°02'0 8.1
2018-Jan-11 18:30N 40°34' W 074°02'4 9.0
2018-Jan-11 18:01N 40°39' W 074°04'  
Track history (hours):
 
Tides and Currents Weather Stations Pressure Air Temp Water Temp Dewpoint Dewpoint Depression Visibility Wind Speed Wind Dir Waves Ship Positions

Turecamo Girls

Owner: Moran Towing Corporation, New Canaan, CT. More information available from US FCC via Universal Licensing System and Coast Guard Vessel Documentation Center.

Last reported at 2018-Jan-21 17:36 UTC. Time now 2018-Jan-21 18:18 UTC.
Position N 40°35' W 074°13'.

Length 30 m; draft 4 m.

Type: Tug. MMSI: 366946710.

Date/timePositionNaut miles runAvg speedWind from/ knotsBaromVisibWave heightAir tempDewpointWater temp
2018-Jan-21 17:36N 40°35' W 074°13'3 1.5
2018-Jan-21 15:37N 40°33' W 074°15'2 9.2
2018-Jan-21 15:23N 40°34' W 074°13'3 9.1
2018-Jan-21 15:00N 40°38' W 074°12'4 8.1
2018-Jan-21 14:29N 40°39' W 074°07'1 1.3
2018-Jan-21 13:55N 40°39' W 074°06'1 2.4
2018-Jan-21 13:26N 40°39' W 074°07'2 3.5
2018-Jan-21 13:00N 40°40' W 074°08'2 3.3
2018-Jan-21 12:29N 40°42' W 074°08'0 0.5
2018-Jan-21 11:59N 40°42' W 074°09'0 0.9
2018-Jan-21 11:29N 40°41' W 074°08'2 5.1
2018-Jan-21 11:00N 40°39' W 074°09'1 2.2
2018-Jan-21 10:30N 40°38' W 074°08'0 0.3
2018-Jan-21 09:57N 40°39' W 074°08'1 1.7
2018-Jan-21 09:30N 40°39' W 074°07'1 1.8
2018-Jan-21 08:59N 40°38' W 074°08'0 0.0
2018-Jan-21 08:26N 40°38' W 074°08'0 0.0
2018-Jan-21 07:56N 40°38' W 074°08'0 0.0
2018-Jan-21 07:25N 40°38' W 074°08'0 0.0
2018-Jan-21 06:55N 40°38' W 074°08'0 0.0
2018-Jan-21 06:28N 40°38' W 074°08'0 0.0
2018-Jan-21 05:58N 40°38' W 074°08'0 0.0
2018-Jan-21 05:25N 40°38' W 074°08'0 0.0
2018-Jan-21 04:58N 40°38' W 074°08'0 0.0
2018-Jan-21 04:25N 40°38' W 074°08'0 0.0
2018-Jan-21 03:55N 40°38' W 074°08'0 0.0
2018-Jan-21 03:28N 40°38' W 074°08'0 0.0
2018-Jan-21 02:58N 40°38' W 074°08'0 0.0
2018-Jan-21 02:25N 40°38' W 074°08'0 0.0
2018-Jan-21 01:55N 40°38' W 074°08'0 0.0
2018-Jan-21 01:13N 40°38' W 074°08'0 0.0
2018-Jan-21 00:58N 40°38' W 074°08'1 2.0
2018-Jan-21 00:28N 40°39' W 074°07'0 0.0
2018-Jan-20 23:58N 40°39' W 074°07'0 0.0
2018-Jan-20 23:28N 40°39' W 074°07'0 0.0
2018-Jan-20 22:55N 40°39' W 074°07'0 0.2
2018-Jan-20 22:26N 40°39' W 074°07'1 1.9
2018-Jan-20 21:55N 40°38' W 074°08'1 1.6
2018-Jan-20 21:29N 40°39' W 074°07'0 0.0
2018-Jan-20 20:59N 40°39' W 074°07'2 3.2
2018-Jan-20 20:30N 40°39' W 074°05'2 3.1
2018-Jan-20 20:00N 40°38' W 074°04'1 2.2
2018-Jan-20 19:30N 40°39' W 074°04'2 3.6
2018-Jan-20 19:00N 40°39' W 074°07'5 9.3
2018-Jan-20 18:31N 40°41' W 074°01'5 9.8
2018-Jan-20 18:00N 40°45' W 073°58'4 7.8
2018-Jan-20 17:29N 40°47' W 073°54'0 0.4
2018-Jan-20 16:54N 40°47' W 073°54'1 2.8
2018-Jan-20 16:30N 40°48' W 073°53'0 0.3
2018-Jan-20 15:49N 40°48' W 073°53'1 4.1
2018-Jan-20 15:30N 40°48' W 073°55'4 7.9
2018-Jan-20 15:00N 40°45' W 073°58'3 6.6
2018-Jan-20 14:30N 40°42' W 074°00'3 6.2
2018-Jan-20 14:00N 40°40' W 074°03'2 3.1
2018-Jan-20 13:30N 40°40' W 074°05'0 0.0
2018-Jan-20 13:00N 40°40' W 074°05'2 4.0
2018-Jan-20 12:29N 40°39' W 074°03'0 0.5
2018-Jan-20 11:54N 40°38' W 074°04'0 0.2
2018-Jan-20 11:27N 40°38' W 074°04'0 0.1
2018-Jan-20 11:00N 40°38' W 074°04'0 0.1
2018-Jan-20 10:27N 40°38' W 074°04'0 0.0
2018-Jan-20 10:00N 40°38' W 074°04'0 0.0
2018-Jan-20 09:27N 40°38' W 074°04'0 0.0
2018-Jan-20 08:57N 40°38' W 074°04'0 0.0
2018-Jan-20 08:29N 40°38' W 074°04'2 3.7
2018-Jan-20 08:00N 40°39' W 074°06'1 1.5
2018-Jan-20 07:05N 40°38' W 074°08'0 0.0
2018-Jan-20 06:53N 40°38' W 074°08'0 0.0
2018-Jan-20 06:20N 40°38' W 074°08'0 0.0
2018-Jan-20 05:14N 40°38' W 074°08'0 0.1
2018-Jan-20 04:58N 40°38' W 074°08'4 7.3
2018-Jan-20 04:29N 40°37' W 074°12'5 2.0
2018-Jan-20 02:02N 40°33' W 074°15'2 8.5
2018-Jan-20 01:49N 40°34' W 074°13'3 8.8
2018-Jan-20 01:30N 40°37' W 074°12'3 6.1
2018-Jan-20 01:00N 40°39' W 074°09'1 0.8
2018-Jan-19 23:18N 40°38' W 074°08'0 0.0
2018-Jan-19 23:00N 40°38' W 074°08'0 0.0
2018-Jan-19 22:30N 40°38' W 074°08'0 0.0
2018-Jan-19 20:40N 40°38' W 074°08'1 6.6
2018-Jan-19 20:30N 40°39' W 074°06'1 1.8
2018-Jan-19 19:59N 40°39' W 074°05'2 4.2
2018-Jan-19 19:29N 40°39' W 074°08'0 0.2
2018-Jan-19 18:58N 40°38' W 074°08'0 0.0
2018-Jan-19 18:28N 40°38' W 074°08'0 0.0
2018-Jan-19 17:58N 40°38' W 074°08'0 0.5
2018-Jan-19 17:30N 40°39' W 074°08'4 8.1
2018-Jan-19 16:59N 40°43' W 074°07'1 1.9
2018-Jan-19 16:28N 40°42' W 074°07'0 0.3
2018-Jan-19 15:58N 40°42' W 074°07'3 6.7
2018-Jan-19 15:30N 40°38' W 074°08'2 4.1
2018-Jan-19 15:00N 40°39' W 074°05'0 0.1
2018-Jan-19 14:27N 40°39' W 074°05'0 0.3
2018-Jan-19 14:00N 40°39' W 074°05'1 2.2
2018-Jan-19 13:28N 40°39' W 074°04'0 0.4
2018-Jan-19 12:58N 40°39' W 074°04'2 4.0
2018-Jan-19 12:29N 40°40' W 074°05'0 0.3
2018-Jan-19 11:59N 40°40' W 074°05'1 1.3
2018-Jan-19 11:29N 40°40' W 074°04'1 1.3
2018-Jan-19 10:57N 40°40' W 074°03'0 0.8
2018-Jan-19 10:30N 40°40' W 074°03'3 6.7
2018-Jan-19 10:00N 40°39' W 074°07'1 1.0
2018-Jan-19 09:31N 40°38' W 074°08'0 0.0
2018-Jan-19 09:01N 40°38' W 074°08'0 0.0
2018-Jan-19 08:30N 40°38' W 074°08'0 0.0
2018-Jan-19 08:00N 40°38' W 074°08'0 0.0
2018-Jan-19 07:28N 40°38' W 074°08'3 7.5
2018-Jan-19 07:00N 40°38' W 074°12'4 8.0
2018-Jan-19 06:29N 40°33' W 074°14'1 1.7
2018-Jan-19 05:45N 40°33' W 074°15'2 9.2
2018-Jan-19 05:29N 40°34' W 074°13'5 9.9
2018-Jan-19 05:00N 40°39' W 074°11'2 4.5
2018-Jan-19 04:30N 40°38' W 074°08'0 0.0
2018-Jan-19 04:00N 40°38' W 074°08'0 0.0
2018-Jan-19 03:30N 40°38' W 074°08'0 0.0
2018-Jan-19 03:00N 40°38' W 074°08'0 0.0
2018-Jan-19 02:30N 40°38' W 074°08'0 0.0
2018-Jan-19 02:00N 40°38' W 074°08'0 0.0
2018-Jan-19 01:30N 40°38' W 074°08'0 0.0
2018-Jan-19 00:59N 40°38' W 074°08'0 0.0
2018-Jan-19 00:29N 40°38' W 074°08'0 0.0
2018-Jan-18 23:59N 40°38' W 074°08'0 0.0
2018-Jan-18 23:29N 40°38' W 074°08'0 0.0
2018-Jan-18 22:59N 40°38' W 074°08'0 0.0
2018-Jan-18 22:29N 40°38' W 074°08'0 0.0
2018-Jan-18 21:53N 40°38' W 074°08'0 0.2
2018-Jan-18 21:25N 40°39' W 074°08'0 0.2
2018-Jan-18 21:00N 40°38' W 074°08'0 0.0
2018-Jan-18 20:30N 40°38' W 074°08'0 0.0
2018-Jan-18 20:00N 40°38' W 074°08'0 0.0
2018-Jan-18 19:30N 40°38' W 074°08'0 0.0
2018-Jan-18 18:54N 40°38' W 074°08'0 0.0
2018-Jan-18 18:27N 40°38' W 074°08'0 0.0
2018-Jan-18 18:00N 40°38' W 074°08'0 0.0
2018-Jan-18 17:30N 40°38' W 074°08'0 0.1
2018-Jan-18 16:40N 40°38' W 074°08'1 8.5
2018-Jan-18 16:30N 40°39' W 074°10'2 4.6
2018-Jan-18 15:59N 40°38' W 074°12'0 0.7
2018-Jan-18 15:29N 40°38' W 074°12'3 6.9
2018-Jan-18 15:00N 40°39' W 074°08'0 0.2
2018-Jan-18 14:29N 40°38' W 074°08'0 0.9
2018-Jan-18 14:00N 40°39' W 074°07'1 1.1
2018-Jan-18 13:29N 40°39' W 074°07'0 0.4
2018-Jan-18 12:50N 40°39' W 074°06'2 5.4
2018-Jan-18 12:29N 40°39' W 074°09'2 1.2
2018-Jan-18 10:35N 40°42' W 074°08'1 4.5
2018-Jan-18 10:22N 40°41' W 074°08'2 5.5
2018-Jan-18 10:00N 40°39' W 074°08'4 7.9
2018-Jan-18 09:30N 40°38' W 074°03'2 3.3
2018-Jan-18 09:00N 40°40' W 074°04'1 2.0
2018-Jan-18 08:30N 40°40' W 074°05'2 4.5
2018-Jan-18 08:00N 40°40' W 074°02'1 2.5
2018-Jan-18 07:30N 40°41' W 074°01'0 0.4
2018-Jan-18 07:00N 40°41' W 074°01'6 3.2
2018-Jan-18 05:10N 40°38' W 074°08'0 0.0
2018-Jan-18 04:58N 40°38' W 074°08'0 0.0
2018-Jan-18 04:28N 40°38' W 074°08'0 0.0
2018-Jan-18 03:52N 40°38' W 074°08'0 0.0
2018-Jan-18 03:22N 40°38' W 074°08'0 0.0
2018-Jan-18 02:58N 40°38' W 074°08'0 0.0
2018-Jan-18 02:28N 40°38' W 074°08'1 1.9
2018-Jan-18 02:00N 40°39' W 074°07'0 0.2
2018-Jan-18 01:23N 40°39' W 074°07'1 2.3
2018-Jan-18 01:00N 40°39' W 074°05'2 1.9
2018-Jan-18 00:00N 40°38' W 074°08'0 0.0
2018-Jan-17 23:54N 40°38' W 074°08'  
2018-Jan-12 14:59N 40°38' W 074°08'3 6.8
2018-Jan-12 14:30N 40°38' W 074°03'3 5.2
2018-Jan-12 14:00N 40°36' W 074°02'0 0.4
2018-Jan-12 13:29N 40°36' W 074°02'0 0.1
2018-Jan-12 12:55N 40°36' W 074°02'0 0.2
2018-Jan-12 12:28N 40°36' W 074°02'0 0.2
2018-Jan-12 12:00N 40°36' W 074°02'0 0.1
2018-Jan-12 11:30N 40°36' W 074°02'0 0.3
2018-Jan-12 11:00N 40°36' W 074°02'0 0.2
2018-Jan-12 10:29N 40°36' W 074°02'0 0.2
2018-Jan-12 09:59N 40°36' W 074°02'0 0.0
2018-Jan-12 09:30N 40°36' W 074°02'0 0.0
2018-Jan-12 08:58N 40°36' W 074°02'0 0.2
2018-Jan-12 08:29N 40°36' W 074°02'0 0.2
2018-Jan-12 08:00N 40°36' W 074°02'0 0.2
2018-Jan-12 07:31N 40°36' W 074°02'0 0.5
2018-Jan-12 06:56N 40°36' W 074°02'0 0.6
2018-Jan-12 06:28N 40°36' W 074°02'0 0.1
2018-Jan-12 05:58N 40°36' W 074°02'0 0.1
2018-Jan-12 05:30N 40°35' W 074°02'0 0.2
2018-Jan-12 04:57N 40°35' W 074°02'0 0.2
2018-Jan-12 04:30N 40°35' W 074°02'0 0.3
2018-Jan-12 04:00N 40°35' W 074°02'0 0.1
2018-Jan-12 02:59N 40°35' W 074°02'1 0.1
2018-Jan-11 18:31N 40°34' W 074°02'0 8.1
2018-Jan-11 18:30N 40°34' W 074°02'4 9.0
2018-Jan-11 18:01N 40°39' W 074°04'  

Dump ship's entire track history